createdAt,value
2018-01-26T00:01:59.819Z,15.37
2018-01-26T00:04:28.887Z,16.00
2018-01-26T00:06:57.192Z,18.80
2018-01-26T00:09:26.315Z,13.97
2018-01-26T00:11:54.623Z,21.27
2018-01-26T00:14:22.927Z,21.50
2018-01-26T00:16:51.775Z,25.93
2018-01-26T00:19:20.077Z,18.97
2018-01-26T00:21:48.384Z,22.53
2018-01-26T00:24:16.730Z,23.87
2018-01-26T00:26:44.799Z,18.03
2018-01-26T00:29:13.144Z,18.87
2018-01-26T00:31:41.494Z,19.60
2018-01-26T00:34:09.798Z,20.33
2018-01-26T00:36:38.096Z,23.10
2018-01-26T00:39:06.699Z,17.63
2018-01-26T00:41:35.003Z,17.70
2018-01-26T00:44:03.327Z,20.50
2018-01-26T00:46:31.923Z,21.83
2018-01-26T00:49:00.228Z,21.53
2018-01-26T00:51:29.230Z,21.30
2018-01-26T00:53:57.603Z,24.10
2018-01-26T00:56:25.910Z,18.63
2018-01-26T00:58:54.406Z,19.63
2018-01-26T01:01:22.720Z,22.90
2018-01-26T01:03:51.028Z,16.80
2018-01-26T01:06:19.379Z,19.30
2018-01-26T01:08:47.680Z,27.10
2018-01-26T01:11:16.051Z,23.47
2018-01-26T01:13:44.380Z,17.87
2018-01-26T01:16:12.808Z,22.00
2018-01-26T01:18:41.173Z,19.93
2018-01-26T01:21:09.935Z,17.87
2018-01-26T01:23:38.244Z,17.27
2018-01-26T01:26:07.028Z,16.70
2018-01-26T01:28:35.343Z,19.20
2018-01-26T01:31:03.700Z,20.20
2018-01-26T01:33:32.100Z,15.90
2018-01-26T01:36:00.456Z,19.07
2018-01-26T01:38:28.778Z,18.43
2018-01-26T01:40:57.119Z,19.23
2018-01-26T01:43:25.424Z,16.07
2018-01-26T01:45:53.742Z,18.90
2018-01-26T01:48:22.104Z,17.03
2018-01-26T01:50:50.399Z,18.40
2018-01-26T01:53:19.128Z,18.13
2018-01-26T01:55:47.471Z,19.63
2018-01-26T01:58:15.832Z,16.90
2018-01-26T02:00:44.152Z,15.03
2018-01-26T02:03:12.607Z,17.20
2018-01-26T02:05:40.914Z,19.87
2018-01-26T02:08:09.230Z,23.37
2018-01-26T02:10:37.857Z,18.97
2018-01-26T02:13:07.064Z,20.73
2018-01-26T02:15:35.400Z,19.10
2018-01-26T02:18:04.000Z,18.17
2018-01-26T02:20:32.302Z,17.23
2018-01-26T02:23:00.663Z,13.00
2018-01-26T02:25:41.335Z,16.47
2018-01-26T02:28:09.936Z,17.80
2018-01-26T02:30:38.249Z,16.17
2018-01-26T02:33:07.536Z,17.97
2018-01-26T02:35:36.253Z,16.83
2018-01-26T02:38:04.580Z,18.03
2018-01-26T02:40:33.658Z,16.40
2018-01-26T02:43:01.995Z,21.20
2018-01-26T02:45:30.299Z,18.03
2018-01-26T02:47:59.126Z,19.20
2018-01-26T02:50:28.200Z,18.97
2018-01-26T02:52:56.515Z,16.97
2018-01-26T02:55:24.849Z,14.90
2018-01-26T02:57:53.168Z,19.53
2018-01-26T03:00:21.796Z,20.10
2018-01-26T03:02:50.119Z,21.10
2018-01-26T03:05:18.430Z,14.17
2018-01-26T03:07:46.776Z,14.43
2018-01-26T03:10:15.843Z,15.10
2018-01-26T03:12:44.197Z,11.10
2018-01-26T03:15:13.520Z,12.00
2018-01-26T03:17:41.863Z,10.23
2018-01-26T03:20:10.170Z,14.00
2018-01-26T03:22:38.676Z,16.90
2018-01-26T03:25:07.747Z,16.50
2018-01-26T03:27:36.106Z,20.20
2018-01-26T03:30:04.824Z,15.87
2018-01-26T03:32:33.131Z,17.27
2018-01-26T03:35:01.436Z,15.47
2018-01-26T03:37:29.762Z,21.87
2018-01-26T03:39:58.140Z,19.77
2018-01-26T03:42:26.553Z,20.53
2018-01-26T03:44:54.915Z,25.00
2018-01-26T03:47:23.920Z,30.63
2018-01-26T03:49:53.385Z,14.83
2018-01-26T03:52:28.587Z,15.17
2018-01-26T03:54:57.000Z,13.80
2018-01-26T03:57:25.299Z,11.00
2018-01-26T03:59:53.599Z,9.90
2018-01-26T04:02:21.963Z,13.73
2018-01-26T04:04:51.672Z,13.73
2018-01-26T04:07:20.739Z,10.57
2018-01-26T04:09:49.104Z,11.47
2018-01-26T04:12:18.238Z,11.87
2018-01-26T04:14:46.676Z,12.90
2018-01-26T04:17:15.367Z,11.27
2018-01-26T04:19:43.670Z,12.67
2018-01-26T04:22:11.980Z,12.50
2018-01-26T04:24:40.311Z,12.37
2018-01-26T04:27:08.620Z,10.37
2018-01-26T04:29:37.719Z,5.73
2018-01-26T04:32:06.787Z,12.47
2018-01-26T04:34:35.151Z,11.57
2018-01-26T04:37:03.445Z,7.37
2018-01-26T04:39:31.946Z,8.37
2018-01-26T04:42:00.295Z,9.10
2018-01-26T04:44:28.604Z,7.70
2018-01-26T04:46:57.696Z,9.03
2018-01-26T04:49:26.804Z,11.40
2018-01-26T04:51:56.124Z,10.10
2018-01-26T04:54:24.445Z,10.10
2018-01-26T04:56:52.752Z,13.33
2018-01-26T04:59:21.079Z,11.53
2018-01-26T05:01:49.371Z,9.53
2018-01-26T05:04:18.008Z,11.57
2018-01-26T05:06:46.327Z,6.83
2018-01-26T05:09:14.664Z,10.33
2018-01-26T05:11:42.988Z,14.70
2018-01-26T05:14:11.300Z,12.13
2018-01-26T05:16:39.798Z,23.90
2018-01-26T05:19:08.100Z,17.50
2018-01-26T05:21:36.398Z,12.93
2018-01-26T05:24:04.842Z,15.60
2018-01-26T05:26:33.138Z,13.40
2018-01-26T05:29:01.443Z,13.70
2018-01-26T05:31:30.558Z,13.83
2018-01-26T05:33:59.636Z,29.60
2018-01-26T05:36:27.938Z,19.87
2018-01-26T05:38:57.327Z,16.47
2018-01-26T05:41:25.647Z,17.27
2018-01-26T05:43:53.951Z,17.80
2018-01-26T05:46:22.332Z,16.67
2018-01-26T05:48:50.771Z,19.53
2018-01-26T05:51:19.090Z,24.80
2018-01-26T05:53:47.423Z,16.90
2018-01-26T05:56:15.727Z,19.83
2018-01-26T05:58:44.033Z,15.70
2018-01-26T06:01:12.529Z,18.87
2018-01-26T06:03:41.219Z,23.17
2018-01-26T06:06:09.528Z,21.20
2018-01-26T06:08:37.872Z,17.00
2018-01-26T06:11:06.175Z,16.40
2018-01-26T06:13:34.486Z,20.37
2018-01-26T06:16:02.835Z,22.43
2018-01-26T06:18:31.143Z,15.47
2018-01-26T06:21:00.219Z,14.37
2018-01-26T06:23:30.767Z,20.77
2018-01-26T06:25:59.088Z,18.17
2018-01-26T06:28:27.395Z,16.37
2018-01-26T06:30:55.748Z,22.30
2018-01-26T06:33:24.819Z,16.30
2018-01-26T06:35:53.123Z,18.27
2018-01-26T06:38:22.214Z,20.00
2018-01-26T06:40:50.511Z,18.63
2018-01-26T06:43:19.611Z,23.80
2018-01-26T06:45:48.167Z,17.80
2018-01-26T06:48:16.574Z,18.70
2018-01-26T06:50:44.904Z,22.00
2018-01-26T06:53:13.255Z,17.07
2018-01-26T06:55:42.064Z,13.13
2018-01-26T06:58:10.371Z,20.10
2018-01-26T07:00:38.901Z,18.03
2018-01-26T07:03:07.219Z,17.03
2018-01-26T07:05:35.523Z,16.57
2018-01-26T07:08:03.936Z,23.00
2018-01-26T07:10:32.776Z,16.80
2018-01-26T07:13:01.312Z,29.03
2018-01-26T07:15:30.344Z,17.77
2018-01-26T07:17:59.060Z,23.60
2018-01-26T07:20:27.393Z,24.30
2018-01-26T07:22:55.751Z,22.87
2018-01-26T07:25:24.064Z,26.40
2018-01-26T07:27:52.369Z,21.03
2018-01-26T07:30:20.992Z,19.77
2018-01-26T07:32:49.353Z,21.20
2018-01-26T07:35:17.661Z,24.30
2018-01-26T07:37:46.015Z,21.10
2018-01-26T07:40:14.320Z,23.30
2018-01-26T07:42:42.636Z,19.50
2018-01-26T07:45:11.004Z,21.43
2018-01-26T07:47:40.071Z,22.90
2018-01-26T07:50:08.379Z,20.50
2018-01-26T07:52:36.988Z,19.80
2018-01-26T07:55:05.291Z,18.93
2018-01-26T07:57:34.015Z,21.70
2018-01-26T08:00:02.335Z,14.77
2018-01-26T08:02:31.744Z,17.63
2018-01-26T08:05:00.073Z,16.27
2018-01-26T08:07:28.415Z,13.57
2018-01-26T08:09:56.728Z,12.07
2018-01-26T08:12:25.886Z,19.10
2018-01-26T08:14:54.208Z,22.43
2018-01-26T08:17:22.524Z,19.50
2018-01-26T08:19:51.123Z,22.10
2018-01-26T08:22:19.423Z,16.80
2018-01-26T08:24:47.731Z,17.43
2018-01-26T08:27:16.712Z,13.87
2018-01-26T08:29:45.019Z,17.10
2018-01-26T08:32:13.330Z,20.93
2018-01-26T08:34:41.667Z,16.63
2018-01-26T08:37:10.739Z,16.50
2018-01-26T08:39:39.043Z,12.17
2018-01-26T08:42:07.415Z,16.40
2018-01-26T08:44:35.730Z,16.37
2018-01-26T08:47:04.028Z,13.13
2018-01-26T08:49:32.375Z,13.67
2018-01-26T08:52:00.675Z,12.50
2018-01-26T08:54:28.984Z,12.50
2018-01-26T08:56:57.648Z,11.97
2018-01-26T08:59:26.012Z,17.20
2018-01-26T09:01:54.315Z,15.03
2018-01-26T09:04:22.758Z,13.90
2018-01-26T09:06:51.067Z,16.87
2018-01-26T09:09:19.383Z,12.13
2018-01-26T09:11:48.487Z,9.37
2018-01-26T09:14:16.853Z,9.13
2018-01-26T09:16:45.152Z,10.37
2018-01-26T09:19:13.576Z,7.33
2018-01-26T09:21:41.875Z,5.20
2018-01-26T09:24:10.180Z,11.87
2018-01-26T09:26:38.524Z,8.60
2018-01-26T09:29:06.826Z,8.40
2018-01-26T09:31:35.129Z,8.00
2018-01-26T09:34:04.272Z,10.83
2018-01-26T09:36:32.595Z,8.43
2018-01-26T09:39:00.896Z,7.47
2018-01-26T09:41:29.395Z,8.07
2018-01-26T09:43:58.195Z,6.97
2018-01-26T09:46:26.509Z,6.13
2018-01-26T09:48:55.127Z,7.00
2018-01-26T09:51:24.431Z,6.27
2018-01-26T09:53:52.731Z,8.10
2018-01-26T09:56:21.215Z,7.30
2018-01-26T09:58:49.624Z,6.47
2018-01-26T10:01:17.999Z,4.70
2018-01-26T10:03:46.344Z,5.13
2018-01-26T10:06:14.951Z,4.60
2018-01-26T10:08:43.281Z,5.00
2018-01-26T10:11:11.623Z,4.03
2018-01-26T10:13:40.695Z,7.30
2018-01-26T10:16:09.025Z,6.03
2018-01-26T10:18:37.758Z,6.43
2018-01-26T10:21:06.499Z,5.67
2018-01-26T10:23:34.799Z,6.73
2018-01-26T10:26:03.167Z,5.83
2018-01-26T10:28:31.480Z,9.80
2018-01-26T10:30:59.791Z,11.83
2018-01-26T10:33:28.016Z,11.87
2018-01-26T10:35:56.337Z,10.30
2018-01-26T10:38:24.640Z,9.87
2018-01-26T10:40:52.991Z,10.97
2018-01-26T10:43:21.300Z,10.13
2018-01-26T10:45:49.600Z,6.17
2018-01-26T10:48:18.004Z,7.90
2018-01-26T10:50:47.391Z,8.33
2018-01-26T10:53:15.905Z,6.50
2018-01-26T10:55:44.727Z,9.23
2018-01-26T10:58:13.867Z,6.50
2018-01-26T11:00:44.599Z,13.03
2018-01-26T11:03:12.904Z,6.00
2018-01-26T11:05:41.215Z,5.10
2018-01-26T11:08:09.568Z,7.80
2018-01-26T11:10:37.863Z,5.73
2018-01-26T11:13:06.199Z,9.70
2018-01-26T11:15:34.724Z,6.03
2018-01-26T11:18:03.035Z,5.90
2018-01-26T11:20:31.335Z,5.23
2018-01-26T11:23:00.466Z,5.73
2018-01-26T11:25:28.773Z,6.00
2018-01-26T11:27:57.079Z,9.53
2018-01-26T11:30:25.663Z,7.37
2018-01-26T11:32:53.954Z,9.60
2018-01-26T11:35:22.263Z,7.63
2018-01-26T11:37:50.616Z,11.53
2018-01-26T11:40:19.500Z,7.90
2018-01-26T11:42:47.807Z,7.77
2018-01-26T11:45:16.439Z,11.13
2018-01-26T11:47:44.738Z,9.83
2018-01-26T11:50:13.041Z,9.90
2018-01-26T11:52:41.451Z,11.67
2018-01-26T11:55:09.752Z,11.13
2018-01-26T11:57:38.051Z,15.50
2018-01-26T12:00:06.411Z,13.70
2018-01-26T12:02:34.736Z,8.77
2018-01-26T12:05:03.043Z,10.80
2018-01-26T12:07:31.404Z,11.33
2018-01-26T12:09:59.754Z,11.43
2018-01-26T12:12:28.060Z,11.37
2018-01-26T12:14:56.411Z,10.93
2018-01-26T12:17:24.708Z,15.67
2018-01-26T12:19:53.009Z,11.30
2018-01-26T12:22:21.359Z,11.63
2018-01-26T12:24:50.040Z,15.10
2018-01-26T12:27:18.660Z,13.87
2018-01-26T12:29:47.315Z,13.97
2018-01-26T12:32:15.937Z,14.30
2018-01-26T12:34:45.559Z,10.70
2018-01-26T12:37:13.947Z,16.63
2018-01-26T12:39:42.303Z,12.63
2018-01-26T12:42:10.695Z,13.90
2018-01-26T12:44:39.091Z,11.10
2018-01-26T12:47:08.156Z,9.80
2018-01-26T12:49:36.516Z,15.60
2018-01-26T12:52:05.254Z,7.90
2018-01-26T12:54:33.603Z,9.63
2018-01-26T12:57:01.954Z,8.57
2018-01-26T12:59:30.597Z,10.90
2018-01-26T13:01:59.719Z,8.77
2018-01-26T13:04:28.072Z,9.13
2018-01-26T13:06:56.455Z,8.77
2018-01-26T13:09:25.567Z,8.77
2018-01-26T13:11:54.006Z,10.90
2018-01-26T13:14:23.278Z,9.50
2018-01-26T13:16:51.636Z,7.90
2018-01-26T13:19:20.011Z,14.30
2018-01-26T13:21:48.518Z,6.63
2018-01-26T13:24:17.358Z,6.70
2018-01-26T13:26:49.325Z,9.10
2018-01-26T13:29:18.439Z,6.53
2018-01-26T13:31:46.791Z,4.77
2018-01-26T13:34:15.904Z,3.80
2018-01-26T13:36:44.319Z,5.27
2018-01-26T13:39:12.675Z,6.63
2018-01-26T13:41:42.227Z,4.33
2018-01-26T13:44:10.545Z,4.50
2018-01-26T13:46:38.860Z,5.10
2018-01-26T13:49:07.539Z,3.47
2018-01-26T13:51:35.840Z,5.63
2018-01-26T13:54:04.135Z,6.13
2018-01-26T13:56:33.475Z,5.30
2018-01-26T13:59:01.796Z,4.93
2018-01-26T14:01:30.107Z,4.57
2018-01-26T14:03:58.887Z,6.90
2018-01-26T14:06:27.946Z,3.37
2018-01-26T14:08:56.463Z,3.57
2018-01-26T14:11:24.816Z,5.90
2018-01-26T14:13:53.245Z,3.97
2018-01-26T14:16:22.023Z,6.63
2018-01-26T14:18:50.375Z,4.10
2018-01-26T14:21:18.760Z,4.07
2018-01-26T14:23:47.067Z,3.80
2018-01-26T14:26:15.411Z,4.47
2018-01-26T14:28:43.708Z,4.60
2018-01-26T14:31:12.775Z,4.70
2018-01-26T14:33:41.224Z,6.37
2018-01-26T14:36:09.519Z,6.57
2018-01-26T14:38:37.820Z,3.73
2018-01-26T14:41:06.583Z,4.00
2018-01-26T14:43:34.885Z,5.23
2018-01-26T14:46:03.186Z,4.33
2018-01-26T14:48:31.532Z,8.60
2018-01-26T14:51:00.187Z,7.60
2018-01-26T14:53:28.522Z,4.53
2018-01-26T14:55:57.084Z,8.13
2018-01-26T14:58:25.388Z,5.63
2018-01-26T15:00:53.690Z,6.03
2018-01-26T15:03:22.036Z,6.40
2018-01-26T15:05:51.099Z,7.07
2018-01-26T15:08:20.155Z,7.40
2018-01-26T15:10:49.227Z,6.77
2018-01-26T15:13:17.532Z,5.90
2018-01-26T15:15:45.840Z,6.33
2018-01-26T15:18:14.286Z,5.83
2018-01-26T15:20:42.626Z,5.20
2018-01-26T15:23:11.727Z,5.33
2018-01-26T15:25:40.847Z,6.27
2018-01-26T15:28:09.907Z,6.40
2018-01-26T15:30:38.980Z,6.27
2018-01-26T15:33:07.775Z,7.17
2018-01-26T15:35:36.099Z,6.50
2018-01-26T15:38:04.395Z,5.57
2018-01-26T15:40:32.777Z,6.93
2018-01-26T15:43:01.081Z,5.90
2018-01-26T15:45:29.884Z,10.63
2018-01-26T15:47:58.984Z,8.20
2018-01-26T15:50:27.267Z,7.30
2018-01-26T15:52:56.340Z,6.70
2018-01-26T15:55:25.411Z,6.23
2018-01-26T15:57:53.771Z,6.10
2018-01-26T16:00:22.382Z,5.50
2018-01-26T16:02:51.307Z,6.47
2018-01-26T16:05:19.662Z,8.40
2018-01-26T16:07:48.083Z,7.90
2018-01-26T16:10:17.232Z,8.50
2018-01-26T16:12:45.588Z,10.83
2018-01-26T16:15:13.947Z,10.43
2018-01-26T16:17:42.454Z,9.90
2018-01-26T16:20:10.843Z,9.03
2018-01-26T16:22:39.883Z,14.43
2018-01-26T16:25:08.259Z,9.60
2018-01-26T16:27:36.620Z,10.40
2018-01-26T16:30:04.979Z,12.37
2018-01-26T16:32:33.400Z,13.27
2018-01-26T16:35:01.750Z,13.27
2018-01-26T16:37:30.499Z,13.37
2018-01-26T16:39:58.898Z,13.60
2018-01-26T16:42:28.168Z,14.23
2018-01-26T16:44:56.734Z,21.97
2018-01-26T16:47:25.094Z,14.20
2018-01-26T16:49:53.470Z,14.40
2018-01-26T16:52:21.831Z,16.67
2018-01-26T16:54:50.187Z,16.07
2018-01-26T16:57:18.967Z,16.93
2018-01-26T16:59:47.812Z,20.93
2018-01-26T17:02:16.431Z,20.63
2018-01-26T17:04:46.198Z,20.87
2018-01-26T17:07:15.298Z,20.57
2018-01-26T17:09:43.604Z,23.20
2018-01-26T17:12:12.836Z,19.40
2018-01-26T17:14:41.199Z,19.07
2018-01-26T17:17:09.511Z,23.47
2018-01-26T17:19:38.451Z,25.17
2018-01-26T17:22:06.767Z,23.60
2018-01-26T17:24:35.074Z,35.77
2018-01-26T17:27:03.866Z,20.93
2018-01-26T17:29:33.497Z,24.93
2018-01-26T17:32:02.792Z,20.77
2018-01-26T17:34:31.632Z,22.83
2018-01-26T17:36:59.976Z,26.60
2018-01-26T17:39:28.284Z,24.87
2018-01-26T17:41:57.103Z,22.00
2018-01-26T17:44:25.497Z,25.07
2018-01-26T17:46:53.787Z,32.33
2018-01-26T17:49:22.107Z,27.30
2018-01-26T17:51:50.452Z,29.07
2018-01-26T17:54:18.806Z,29.37
2018-01-26T17:56:47.897Z,25.37
2018-01-26T17:59:17.423Z,28.40
2018-01-26T18:01:45.732Z,33.37
2018-01-26T18:04:14.046Z,28.40
2018-01-26T18:06:42.424Z,36.03
2018-01-26T18:09:10.740Z,31.87
2018-01-26T18:11:39.090Z,33.90
2018-01-26T18:14:07.435Z,33.73
2018-01-26T18:16:35.748Z,35.13
2018-01-26T18:19:04.091Z,28.37
2018-01-26T18:21:32.487Z,35.40
2018-01-26T18:24:00.803Z,35.20
2018-01-26T18:26:30.119Z,38.03
2018-01-26T18:28:58.606Z,33.83
2018-01-26T18:31:26.722Z,36.63
2018-01-26T18:33:55.447Z,35.90
2018-01-26T18:36:24.028Z,29.77
2018-01-26T18:38:52.385Z,28.17
2018-01-26T18:41:20.739Z,30.53
2018-01-26T18:43:49.518Z,34.20
2018-01-26T18:46:17.881Z,34.53
2018-01-26T18:48:46.242Z,39.03
2018-01-26T18:51:14.642Z,37.20
2018-01-26T18:53:42.994Z,39.93
2018-01-26T18:56:11.346Z,49.57
2018-01-26T18:58:40.211Z,38.73
2018-01-26T19:01:08.688Z,34.90
2018-01-26T19:03:37.160Z,43.63
2018-01-26T19:06:06.601Z,43.87
2018-01-26T19:08:35.088Z,42.53
2018-01-26T19:11:03.463Z,51.07
2018-01-26T19:13:32.580Z,44.20
2018-01-26T19:16:00.939Z,36.13
2018-01-26T19:18:29.300Z,42.23
2018-01-26T19:20:57.639Z,34.20
2018-01-26T19:23:25.994Z,37.13
2018-01-26T19:25:54.415Z,37.43
2018-01-26T19:28:22.722Z,32.43
2018-01-26T19:30:51.078Z,30.77
2018-01-26T19:33:19.495Z,33.87
2018-01-26T19:35:47.852Z,41.87
2018-01-26T19:38:16.152Z,39.13
2018-01-26T19:40:45.263Z,35.20
2018-01-26T19:43:14.408Z,29.67
2018-01-26T19:45:42.835Z,39.83
2018-01-26T19:48:11.662Z,35.27
2018-01-26T19:50:40.348Z,33.47
2018-01-26T19:53:10.519Z,33.60
2018-01-26T19:55:38.915Z,33.50
2018-01-26T19:58:07.688Z,36.47
2018-01-26T20:00:36.141Z,34.40
2018-01-26T20:03:31.156Z,31.70
2018-01-26T20:06:04.879Z,39.00
2018-01-26T20:08:39.377Z,34.30
2018-01-26T20:11:07.690Z,31.23
2018-01-26T20:13:36.094Z,37.17
2018-01-26T20:16:05.023Z,37.87
2018-01-26T20:18:33.327Z,41.10
2018-01-26T20:21:01.790Z,35.90
2018-01-26T20:23:30.306Z,33.20
2018-01-26T20:25:58.662Z,39.20
2018-01-26T20:28:27.794Z,41.00
2018-01-26T20:30:56.458Z,41.47
2018-01-26T20:33:25.530Z,34.47
2018-01-26T20:35:54.807Z,41.23
2018-01-26T20:38:23.192Z,28.87
2018-01-26T20:40:51.571Z,31.33
2018-01-26T20:43:19.931Z,23.20
2018-01-26T20:45:48.284Z,42.30
2018-01-26T20:48:17.011Z,40.00
2018-01-26T20:50:45.623Z,38.80
2018-01-26T20:53:14.178Z,37.33
2018-01-26T20:55:42.550Z,42.40
2018-01-26T20:58:10.911Z,37.03
2018-01-26T21:00:39.291Z,26.07
2018-01-26T21:03:07.642Z,44.80
2018-01-26T21:05:36.027Z,37.40
2018-01-26T21:08:04.375Z,31.17
2018-01-26T21:10:32.690Z,39.83
2018-01-26T21:13:01.051Z,30.50
2018-01-26T21:15:29.943Z,35.73
2018-01-26T21:17:58.598Z,45.13
2018-01-26T21:20:26.959Z,41.10
2018-01-26T21:22:55.928Z,22.63
2018-01-26T21:25:24.260Z,36.27
2018-01-26T21:27:53.568Z,32.90
2018-01-26T21:30:23.398Z,41.17
2018-01-26T21:32:56.428Z,29.37
2018-01-26T21:35:25.491Z,28.73
2018-01-26T21:37:53.850Z,32.27
2018-01-26T21:40:22.351Z,31.30
2018-01-26T21:42:50.655Z,41.10
2018-01-26T21:45:19.050Z,41.33
2018-01-26T21:47:47.705Z,34.87
2018-01-26T21:50:16.085Z,44.83
2018-01-26T21:52:45.819Z,39.20
2018-01-26T21:55:15.038Z,36.53
2018-01-26T21:57:43.442Z,44.30
2018-01-26T22:00:11.783Z,39.23
2018-01-26T22:02:40.163Z,40.63
2018-01-26T22:05:14.059Z,45.20
2018-01-26T22:07:42.441Z,38.97
2018-01-26T22:10:10.784Z,42.00
2018-01-26T22:12:39.485Z,47.43
2018-01-26T22:15:07.846Z,38.30
2018-01-26T22:17:37.242Z,36.80
2018-01-26T22:20:05.865Z,37.50
2018-01-26T22:22:34.369Z,45.43
2018-01-26T22:25:03.071Z,38.63
2018-01-26T22:27:31.588Z,42.63
2018-01-26T22:30:00.529Z,37.93
2018-01-26T22:32:28.831Z,33.13
2018-01-26T22:34:57.192Z,42.73
2018-01-26T22:37:25.551Z,36.03
2018-01-26T22:39:54.488Z,37.47
2018-01-26T22:42:22.926Z,39.87
2018-01-26T22:44:51.803Z,40.57
2018-01-26T22:47:20.198Z,44.13
2018-01-26T22:49:48.538Z,41.83
2018-01-26T22:52:17.482Z,35.63
2018-01-26T22:54:45.961Z,40.60
2018-01-26T22:57:14.263Z,41.60
2018-01-26T22:59:43.369Z,34.97
2018-01-26T23:02:11.811Z,34.50
2018-01-26T23:04:40.183Z,40.60
2018-01-26T23:07:08.495Z,36.10
2018-01-26T23:09:36.894Z,43.07
2018-01-26T23:12:05.262Z,34.33
2018-01-26T23:14:33.641Z,39.47
2018-01-26T23:17:02.703Z,37.67
2018-01-26T23:19:32.480Z,40.03
2018-01-26T23:22:01.396Z,33.50
2018-01-26T23:24:31.578Z,33.73
2018-01-26T23:26:59.892Z,35.27
2018-01-26T23:29:28.495Z,29.57
2018-01-26T23:31:56.890Z,44.27
2018-01-26T23:34:26.016Z,35.73
2018-01-26T23:36:55.083Z,37.97
2018-01-26T23:39:23.415Z,38.53
2018-01-26T23:41:51.844Z,39.33
2018-01-26T23:44:21.257Z,39.63
2018-01-26T23:46:49.614Z,44.13
2018-01-26T23:49:17.973Z,44.30
2018-01-26T23:51:46.316Z,45.27
2018-01-26T23:54:14.662Z,40.93
2018-01-26T23:56:43.006Z,52.30
2018-01-26T23:59:11.511Z,32.33
